createdAt,value
2022-11-24T00:01:05.395Z,7.60
2022-11-24T00:03:32.248Z,8.23
2022-11-24T00:06:04.524Z,8.65
2022-11-24T00:08:31.302Z,8.65
2022-11-24T00:11:06.419Z,8.95
2022-11-24T00:13:34.115Z,7.93
2022-11-24T00:16:07.178Z,7.03
2022-11-24T00:18:33.958Z,8.10
2022-11-24T00:21:00.674Z,8.57
2022-11-24T00:23:27.578Z,8.05
2022-11-24T00:25:54.359Z,9.15
2022-11-24T00:28:21.125Z,10.23
2022-11-24T00:30:47.855Z,10.43
2022-11-24T00:33:14.666Z,10.20
2022-11-24T00:35:41.422Z,10.13
2022-11-24T00:38:08.141Z,10.70
2022-11-24T00:40:35.178Z,9.32
2022-11-24T00:43:02.030Z,9.02
2022-11-24T00:45:28.806Z,9.60
2022-11-24T00:47:55.492Z,9.15
2022-11-24T00:50:22.628Z,8.38
2022-11-24T00:52:49.374Z,8.02
2022-11-24T00:55:16.222Z,8.68
2022-11-24T00:57:42.932Z,7.25
2022-11-24T01:00:10.015Z,7.03
2022-11-24T01:05:03.740Z,6.32
2022-11-24T01:07:31.164Z,6.82
2022-11-24T01:09:57.960Z,6.20
2022-11-24T01:12:24.682Z,5.95
2022-11-24T01:14:51.557Z,5.97
2022-11-24T01:17:18.310Z,7.13
2022-11-24T01:19:47.182Z,5.72
2022-11-24T01:22:14.073Z,5.65
2022-11-24T01:24:41.182Z,5.35
2022-11-24T01:29:34.555Z,5.63
2022-11-24T01:32:01.366Z,6.47
2022-11-24T01:34:28.201Z,6.75
2022-11-24T01:36:54.886Z,6.50
2022-11-24T01:39:21.621Z,6.32
2022-11-24T01:41:48.323Z,5.70
2022-11-24T01:44:24.626Z,5.50
2022-11-24T01:47:17.234Z,4.95
2022-11-24T01:49:51.404Z,4.82
2022-11-24T01:52:49.986Z,5.07
2022-11-24T01:55:21.752Z,4.75
2022-11-24T01:57:55.448Z,5.13
2022-11-24T02:00:22.461Z,5.15
2022-11-24T02:02:49.548Z,4.80
2022-11-24T02:05:28.307Z,4.90
2022-11-24T02:07:59.352Z,4.80
2022-11-24T02:10:26.382Z,4.75
2022-11-24T02:12:56.206Z,4.97
2022-11-24T02:15:23.389Z,5.15
2022-11-24T02:20:17.899Z,5.45
2022-11-24T02:23:35.315Z,5.45
2022-11-24T02:26:25.817Z,5.45
2022-11-24T02:28:52.916Z,5.30
2022-11-24T02:31:19.722Z,5.13
2022-11-24T02:33:48.694Z,5.32
2022-11-24T02:36:15.862Z,5.63
2022-11-24T02:41:13.373Z,5.55
2022-11-24T02:43:44.820Z,5.60
2022-11-24T02:46:11.700Z,5.35
2022-11-24T02:48:39.299Z,5.63
2022-11-24T02:51:06.487Z,5.43
2022-11-24T02:53:33.365Z,5.00
2022-11-24T02:56:00.089Z,5.15
2022-11-24T02:58:27.102Z,5.05
2022-11-24T03:00:57.327Z,4.65
2022-11-24T03:03:24.896Z,5.53
2022-11-24T03:05:51.855Z,5.78
2022-11-24T03:08:18.739Z,5.55
2022-11-24T03:10:45.705Z,5.32
2022-11-24T03:13:12.489Z,5.53
2022-11-24T03:15:39.376Z,5.57
2022-11-24T03:18:06.492Z,4.88
2022-11-24T03:20:33.958Z,5.47
2022-11-24T03:23:00.686Z,5.45
2022-11-24T03:25:27.440Z,5.55
2022-11-24T03:27:57.383Z,5.35
2022-11-24T03:30:24.162Z,5.13
2022-11-24T03:32:54.038Z,5.03
2022-11-24T03:35:21.324Z,5.38
2022-11-24T03:37:48.350Z,5.32
2022-11-24T03:40:15.694Z,5.35
2022-11-24T03:42:42.477Z,5.13
2022-11-24T03:45:37.923Z,5.45
2022-11-24T03:47:56.178Z,5.18
2022-11-24T03:50:22.899Z,5.05
2022-11-24T03:52:49.617Z,5.50
2022-11-24T03:55:16.664Z,4.75
2022-11-24T03:57:43.371Z,4.82
2022-11-24T04:00:11.228Z,5.57
2022-11-24T04:02:38.535Z,5.38
2022-11-24T04:05:06.345Z,5.75
2022-11-24T04:07:33.442Z,5.45
2022-11-24T04:12:45.013Z,5.95
2022-11-24T04:15:15.173Z,5.85
2022-11-24T04:17:42.471Z,5.40
2022-11-24T04:20:10.584Z,5.65
2022-11-24T04:22:37.556Z,6.05
2022-11-24T04:25:05.180Z,5.38
2022-11-24T04:27:35.841Z,5.05
2022-11-24T04:30:03.630Z,5.88
2022-11-24T04:32:30.501Z,5.05
2022-11-24T04:34:57.181Z,5.38
2022-11-24T04:37:24.008Z,5.60
2022-11-24T04:39:50.707Z,5.15
2022-11-24T04:42:17.530Z,5.38
2022-11-24T04:44:44.406Z,5.22
2022-11-24T04:47:20.005Z,5.32
2022-11-24T04:49:50.259Z,5.65
2022-11-24T04:52:19.528Z,5.80
2022-11-24T04:54:46.913Z,5.60
2022-11-24T04:57:19.670Z,5.55
2022-11-24T04:59:46.449Z,5.30
2022-11-24T05:02:13.482Z,4.75
2022-11-24T05:04:40.532Z,6.18
2022-11-24T05:07:07.716Z,5.85
2022-11-24T05:12:21.303Z,5.68
2022-11-24T05:14:48.063Z,5.85
2022-11-24T05:17:14.814Z,5.75
2022-11-24T05:19:41.572Z,6.00
2022-11-24T05:22:08.303Z,5.22
2022-11-24T05:24:35.304Z,5.63
2022-11-24T05:27:02.263Z,6.10
2022-11-24T05:29:28.948Z,5.40
2022-11-24T05:31:55.732Z,5.80
2022-11-24T05:34:22.796Z,7.22
2022-11-24T05:36:56.226Z,7.20
2022-11-24T05:41:49.619Z,7.47
2022-11-24T05:44:16.377Z,8.20
2022-11-24T05:46:43.133Z,7.82
2022-11-24T05:49:10.011Z,6.80
2022-11-24T05:51:37.023Z,7.60
2022-11-24T05:54:04.002Z,7.45
2022-11-24T05:56:30.881Z,7.68
2022-11-24T05:58:57.656Z,7.90
2022-11-24T06:01:24.523Z,8.07
2022-11-24T06:03:51.328Z,7.85
2022-11-24T06:06:18.087Z,7.25
2022-11-24T06:08:44.870Z,7.45
2022-11-24T06:11:17.741Z,7.45
2022-11-24T06:13:45.926Z,6.85
2022-11-24T06:16:13.323Z,6.93
2022-11-24T06:18:40.510Z,6.47
2022-11-24T06:23:39.336Z,5.95
2022-11-24T06:26:06.549Z,6.10
2022-11-24T06:31:04.910Z,5.97
2022-11-24T06:33:36.134Z,6.18
2022-11-24T06:36:07.766Z,7.03
2022-11-24T06:38:36.013Z,7.00
2022-11-24T06:41:07.205Z,7.90
2022-11-24T06:43:35.033Z,7.38
2022-11-24T06:46:02.324Z,7.18
2022-11-24T06:48:29.678Z,8.07
2022-11-24T06:51:01.002Z,7.40
2022-11-24T06:53:31.025Z,7.53
2022-11-24T06:55:59.821Z,7.45
2022-11-24T06:58:26.805Z,7.72
2022-11-24T07:00:54.074Z,7.65
2022-11-24T07:03:21.016Z,8.23
2022-11-24T07:05:47.960Z,7.70
2022-11-24T07:08:17.907Z,7.40
2022-11-24T07:10:45.486Z,8.02
2022-11-24T07:13:12.256Z,8.27
2022-11-24T07:15:39.030Z,8.52
2022-11-24T07:18:05.855Z,8.88
2022-11-24T07:20:32.605Z,8.93
2022-11-24T07:22:59.643Z,8.35
2022-11-24T07:25:26.541Z,8.95
2022-11-24T07:28:00.204Z,9.48
2022-11-24T07:30:28.423Z,8.38
2022-11-24T07:33:02.747Z,8.75
2022-11-24T07:35:30.489Z,9.13
2022-11-24T07:37:58.391Z,9.23
2022-11-24T07:40:26.961Z,9.65
2022-11-24T07:42:54.286Z,9.48
2022-11-24T07:45:21.181Z,8.93
2022-11-24T07:47:47.940Z,9.52
2022-11-24T07:50:15.014Z,10.30
2022-11-24T07:52:41.702Z,9.45
2022-11-24T07:55:09.046Z,10.60
2022-11-24T07:57:35.949Z,11.52
2022-11-24T08:00:05.691Z,11.07
2022-11-24T08:02:33.178Z,11.90
2022-11-24T08:04:59.949Z,11.07
2022-11-24T08:07:26.775Z,9.88
2022-11-24T08:09:53.858Z,9.60
2022-11-24T08:14:51.127Z,9.82
2022-11-24T08:17:18.536Z,10.90
2022-11-24T08:19:45.717Z,11.13
2022-11-24T08:22:12.598Z,10.60
2022-11-24T08:24:46.270Z,11.65
2022-11-24T08:27:13.936Z,11.57
2022-11-24T08:29:40.690Z,11.68
2022-11-24T08:32:08.236Z,11.38
2022-11-24T08:34:35.371Z,11.60
2022-11-24T08:37:06.941Z,13.13
2022-11-24T08:39:34.141Z,13.20
2022-11-24T08:42:00.944Z,12.70
2022-11-24T08:44:28.824Z,13.73
2022-11-24T08:46:55.910Z,11.68
2022-11-24T08:49:22.716Z,12.50
2022-11-24T08:51:51.317Z,13.05
2022-11-24T08:54:18.864Z,13.10
2022-11-24T08:56:46.437Z,12.35
2022-11-24T08:59:14.547Z,11.77
2022-11-24T09:01:42.084Z,12.50
2022-11-24T09:04:08.869Z,12.10
2022-11-24T09:06:35.734Z,12.80
2022-11-24T09:09:03.023Z,12.80
2022-11-24T09:11:30.694Z,12.43
2022-11-24T09:13:57.773Z,13.35
2022-11-24T09:19:01.232Z,12.88
2022-11-24T09:21:29.412Z,14.43
2022-11-24T09:23:57.242Z,14.75
2022-11-24T09:26:26.882Z,14.52
2022-11-24T09:28:55.162Z,14.63
2022-11-24T09:31:24.509Z,14.40
2022-11-24T09:33:52.403Z,13.18
2022-11-24T09:36:19.923Z,13.75
2022-11-24T09:38:46.981Z,13.63
2022-11-24T09:41:44.817Z,13.55
2022-11-24T09:44:46.125Z,13.23
2022-11-24T09:47:34.086Z,14.23
2022-11-24T09:50:17.755Z,12.73
2022-11-24T09:53:03.835Z,14.05
2022-11-24T09:55:49.793Z,13.38
2022-11-24T09:58:50.937Z,13.25
2022-11-24T10:01:45.354Z,13.30
2022-11-24T10:04:20.949Z,12.88
2022-11-24T10:07:13.544Z,13.82
2022-11-24T10:10:14.111Z,14.38
2022-11-24T10:13:05.284Z,13.95
2022-11-24T10:15:42.444Z,14.85
2022-11-24T10:18:16.692Z,14.70
2022-11-24T10:21:18.190Z,15.60
2022-11-24T10:24:06.057Z,15.13
2022-11-24T10:26:43.957Z,14.95
2022-11-24T10:29:19.206Z,28.98
2022-11-24T10:31:47.729Z,20.77
2022-11-24T10:34:18.015Z,16.00
2022-11-24T10:36:52.470Z,15.25
2022-11-24T10:39:42.262Z,14.50
2022-11-24T10:42:20.627Z,15.15
2022-11-24T10:45:10.123Z,15.27
2022-11-24T10:47:37.199Z,15.13
2022-11-24T10:50:16.048Z,15.73
2022-11-24T10:52:47.863Z,15.45
2022-11-24T10:55:14.730Z,16.98
2022-11-24T11:00:20.413Z,15.30
2022-11-24T11:02:49.892Z,15.98
2022-11-24T11:06:01.032Z,16.52
2022-11-24T11:08:33.888Z,17.00
2022-11-24T11:11:12.823Z,15.85
2022-11-24T11:14:03.394Z,17.33
2022-11-24T11:16:35.998Z,17.17
2022-11-24T11:19:20.232Z,16.58
2022-11-24T11:22:06.391Z,16.27
2022-11-24T11:24:34.323Z,17.58
2022-11-24T11:27:04.508Z,16.75
2022-11-24T11:35:13.599Z,16.45
2022-11-24T11:37:40.979Z,16.83
2022-11-24T11:40:17.753Z,17.58
2022-11-24T11:43:20.141Z,18.25
2022-11-24T11:45:50.821Z,16.67
2022-11-24T11:48:33.721Z,16.95
2022-11-24T11:51:23.951Z,17.08
2022-11-24T11:54:29.363Z,17.55
2022-11-24T11:57:32.105Z,17.13
2022-11-24T12:00:22.077Z,16.88
2022-11-24T12:03:30.545Z,18.52
2022-11-24T12:06:15.317Z,17.80
2022-11-24T12:09:20.221Z,17.35
2022-11-24T12:12:18.385Z,17.23
2022-11-24T12:15:09.128Z,17.52
2022-11-24T12:17:46.543Z,18.23
2022-11-24T12:20:28.436Z,16.88
2022-11-24T12:23:01.305Z,16.83
2022-11-24T12:25:34.867Z,16.63
2022-11-24T12:28:26.252Z,17.48
2022-11-24T12:31:07.255Z,17.73
2022-11-24T12:34:04.268Z,16.30
2022-11-24T12:37:08.587Z,17.75
2022-11-24T12:39:39.631Z,16.63
2022-11-24T12:42:42.987Z,17.25
2022-11-24T12:45:09.684Z,17.35
2022-11-24T12:48:03.723Z,18.00
2022-11-24T12:50:34.892Z,16.55
2022-11-24T12:53:18.337Z,17.30
2022-11-24T12:55:46.190Z,16.25
2022-11-24T12:58:27.769Z,16.20
2022-11-24T13:01:59.099Z,16.75
2022-11-24T13:04:36.428Z,17.33
2022-11-24T13:07:12.412Z,16.60
2022-11-24T13:10:17.482Z,16.88
2022-11-24T13:13:08.169Z,17.17
2022-11-24T13:19:25.637Z,16.40
2022-11-24T13:22:07.339Z,16.17
2022-11-24T13:24:39.251Z,17.00
2022-11-24T13:27:15.436Z,15.98
2022-11-24T13:29:47.184Z,15.93
2022-11-24T13:32:17.682Z,16.23
2022-11-24T13:34:45.715Z,17.02
2022-11-24T13:37:34.922Z,15.82
2022-11-24T13:40:22.916Z,16.40
2022-11-24T13:43:00.393Z,16.40
2022-11-24T13:45:40.187Z,16.42
2022-11-24T13:50:49.999Z,13.73
2022-11-24T13:53:38.576Z,16.45
2022-11-24T13:56:15.037Z,14.80
2022-11-24T13:58:42.938Z,16.40
2022-11-24T14:01:30.347Z,16.40
2022-11-24T14:04:29.989Z,14.60
2022-11-24T14:06:53.252Z,15.88
2022-11-24T14:09:49.209Z,14.95
2022-11-24T14:12:20.817Z,13.88
2022-11-24T14:14:52.469Z,14.48
2022-11-24T14:17:28.550Z,13.15
2022-11-24T14:19:57.170Z,14.23
2022-11-24T14:22:26.700Z,14.45
2022-11-24T14:24:55.848Z,13.98
2022-11-24T14:27:34.115Z,13.43
2022-11-24T14:30:04.801Z,13.80
2022-11-24T14:32:31.721Z,13.30
2022-11-24T14:37:25.476Z,13.82
2022-11-24T14:42:27.566Z,12.48
2022-11-24T14:45:00.696Z,13.90
2022-11-24T14:47:32.911Z,13.52
2022-11-24T14:50:13.350Z,13.55
2022-11-24T14:52:55.591Z,12.90
2022-11-24T14:55:30.820Z,16.30
2022-11-24T14:57:58.548Z,14.50
2022-11-24T15:00:27.262Z,14.93
2022-11-24T15:02:55.254Z,14.10
2022-11-24T15:05:26.135Z,14.63
2022-11-24T15:08:02.308Z,13.10
2022-11-24T15:10:36.046Z,14.20
2022-11-24T15:13:06.767Z,13.55
2022-11-24T15:15:38.526Z,13.30
2022-11-24T15:18:06.653Z,13.38
2022-11-24T15:20:36.895Z,14.10
2022-11-24T15:23:28.582Z,12.80
2022-11-24T15:26:18.375Z,13.27
2022-11-24T15:28:48.191Z,13.25
2022-11-24T15:31:15.221Z,13.98
2022-11-24T15:33:42.400Z,17.73
2022-11-24T15:36:09.292Z,14.00
2022-11-24T15:41:12.794Z,15.07
2022-11-24T15:43:41.838Z,15.05
2022-11-24T15:46:10.248Z,14.20
2022-11-24T15:48:37.143Z,14.18
2022-11-24T15:51:07.046Z,13.90
2022-11-24T15:53:40.696Z,13.48
2022-11-24T15:56:12.484Z,14.20
2022-11-24T15:58:39.249Z,13.88
2022-11-24T16:01:06.255Z,13.68
2022-11-24T16:03:49.259Z,13.98
2022-11-24T16:06:24.122Z,14.63
2022-11-24T16:08:52.938Z,14.57
2022-11-24T16:11:19.802Z,14.60
2022-11-24T16:16:20.448Z,13.85
2022-11-24T16:18:47.300Z,14.63
2022-11-24T16:21:14.090Z,14.00
2022-11-24T16:23:40.908Z,14.48
2022-11-24T16:28:34.973Z,14.75
2022-11-24T16:31:01.785Z,13.90
2022-11-24T16:33:30.191Z,14.52
2022-11-24T16:35:57.214Z,14.82
2022-11-24T16:38:24.261Z,15.40
2022-11-24T16:40:52.616Z,16.00
2022-11-24T16:43:19.763Z,17.30
2022-11-24T16:45:50.119Z,17.05
2022-11-24T16:48:16.939Z,16.30
2022-11-24T16:50:43.878Z,16.90
2022-11-24T16:53:10.688Z,15.27
2022-11-24T16:55:37.412Z,16.38
2022-11-24T16:58:05.105Z,17.52
2022-11-24T17:00:31.985Z,17.38
2022-11-24T17:05:25.746Z,16.52
2022-11-24T17:07:52.668Z,17.33
2022-11-24T17:10:19.606Z,17.48
2022-11-24T17:12:46.301Z,18.13
2022-11-24T17:18:23.383Z,18.88
2022-11-24T17:20:46.648Z,17.23
2022-11-24T17:25:40.194Z,18.05
2022-11-24T17:28:07.000Z,16.30
2022-11-24T17:30:33.758Z,18.08
2022-11-24T17:33:00.520Z,18.35
2022-11-24T17:35:27.225Z,18.80
2022-11-24T17:37:53.993Z,18.98
2022-11-24T17:40:28.275Z,20.83
2022-11-24T17:43:01.909Z,21.42
2022-11-24T17:45:30.432Z,21.92
2022-11-24T17:47:59.900Z,20.17
2022-11-24T17:50:26.927Z,19.92
2022-11-24T17:52:54.257Z,19.48
2022-11-24T17:55:21.764Z,19.52
2022-11-24T17:57:48.534Z,20.17
2022-11-24T18:02:42.437Z,20.20
2022-11-24T18:07:36.976Z,20.90
2022-11-24T18:10:04.492Z,21.50
2022-11-24T18:12:32.245Z,21.63
2022-11-24T18:14:59.160Z,22.17
2022-11-24T18:19:52.625Z,21.45
2022-11-24T18:22:36.664Z,22.38
2022-11-24T18:25:07.018Z,20.65
2022-11-24T18:27:33.751Z,22.38
2022-11-24T18:30:00.612Z,22.95
2022-11-24T18:32:27.350Z,21.63
2022-11-24T18:34:54.176Z,21.77
2022-11-24T18:37:20.970Z,21.70
2022-11-24T18:39:47.660Z,22.67
2022-11-24T18:42:14.454Z,23.38
2022-11-24T18:44:42.432Z,21.90
2022-11-24T18:47:09.229Z,21.15
2022-11-24T18:49:35.972Z,22.25
2022-11-24T18:52:02.699Z,21.50
2022-11-24T18:54:29.679Z,23.25
2022-11-24T18:59:29.941Z,20.80
2022-11-24T19:01:57.967Z,21.55
2022-11-24T19:04:26.215Z,21.85
2022-11-24T19:06:52.955Z,20.52
2022-11-24T19:09:22.467Z,19.73
2022-11-24T19:11:49.283Z,19.13
2022-11-24T19:14:18.228Z,18.77
2022-11-24T19:16:47.598Z,18.58
2022-11-24T19:19:15.117Z,19.70
2022-11-24T19:21:41.922Z,19.73
2022-11-24T19:24:10.171Z,18.75
2022-11-24T19:26:38.213Z,18.48
2022-11-24T19:29:05.953Z,19.35
2022-11-24T19:31:33.470Z,20.10
2022-11-24T19:34:00.776Z,21.65
2022-11-24T19:36:27.478Z,21.10
2022-11-24T19:38:56.488Z,20.92
2022-11-24T19:41:29.637Z,19.58
2022-11-24T19:43:57.979Z,19.65
2022-11-24T19:46:27.351Z,21.00
2022-11-24T19:48:56.836Z,18.88
2022-11-24T19:51:26.498Z,18.98
2022-11-24T19:53:53.946Z,19.35
2022-11-24T19:56:23.137Z,19.27
2022-11-24T19:58:51.104Z,20.08
2022-11-24T20:01:19.903Z,19.55
2022-11-24T20:03:49.445Z,17.98
2022-11-24T20:06:16.383Z,18.90
2022-11-24T20:08:43.526Z,17.60
2022-11-24T20:11:14.712Z,19.95
2022-11-24T20:13:43.164Z,19.70
2022-11-24T20:16:15.525Z,20.13
2022-11-24T20:18:44.168Z,19.35
2022-11-24T20:21:10.808Z,19.23
2022-11-24T20:23:37.817Z,19.58
2022-11-24T20:28:53.118Z,19.55
2022-11-24T20:31:22.852Z,17.88
2022-11-24T20:33:50.372Z,17.88
2022-11-24T20:36:19.302Z,18.00
2022-11-24T20:38:47.228Z,18.85
2022-11-24T20:41:15.534Z,20.48
2022-11-24T20:43:43.936Z,18.50
2022-11-24T20:46:25.971Z,20.08
2022-11-24T20:48:54.726Z,18.58
2022-11-24T20:51:24.028Z,18.83
2022-11-24T20:53:53.231Z,18.95
2022-11-24T20:56:25.913Z,18.35
2022-11-24T20:58:53.408Z,19.08
2022-11-24T21:01:24.155Z,17.90
2022-11-24T21:03:58.909Z,17.42
2022-11-24T21:06:28.028Z,18.13
2022-11-24T21:08:59.049Z,18.88
2022-11-24T21:11:28.903Z,17.98
2022-11-24T21:13:56.397Z,17.58
2022-11-24T21:16:31.843Z,17.58
2022-11-24T21:19:06.483Z,19.65
2022-11-24T21:21:36.130Z,18.63
2022-11-24T21:24:10.012Z,19.13
2022-11-24T21:26:38.499Z,18.73
2022-11-24T21:29:06.682Z,18.95
2022-11-24T21:31:37.333Z,19.30
2022-11-24T21:34:05.248Z,20.58
2022-11-24T21:36:34.097Z,20.65
2022-11-24T21:39:02.196Z,20.40
2022-11-24T21:41:32.215Z,21.35
2022-11-24T21:43:59.116Z,22.00
2022-11-24T21:46:25.917Z,22.48
2022-11-24T21:48:52.657Z,22.23
2022-11-24T21:51:20.913Z,21.55
2022-11-24T21:53:48.213Z,22.90
2022-11-24T21:56:22.066Z,24.13
2022-11-24T21:58:57.446Z,22.58
2022-11-24T22:01:27.918Z,21.23
2022-11-24T22:03:55.362Z,20.80
2022-11-24T22:06:22.177Z,20.80
2022-11-24T22:08:49.374Z,21.20
2022-11-24T22:11:17.587Z,20.17
2022-11-24T22:13:44.570Z,21.75
2022-11-24T22:16:17.316Z,20.65
2022-11-24T22:18:44.789Z,19.67
2022-11-24T22:21:14.506Z,18.70
2022-11-24T22:23:41.454Z,20.38
2022-11-24T22:26:15.582Z,21.15
2022-11-24T22:28:43.326Z,19.50
2022-11-24T22:31:16.069Z,19.38
2022-11-24T22:33:43.818Z,19.10
2022-11-24T22:36:12.045Z,19.17
2022-11-24T22:38:39.448Z,18.60
2022-11-24T22:41:14.038Z,18.40
2022-11-24T22:43:41.851Z,19.42
2022-11-24T22:46:13.203Z,18.30
2022-11-24T22:48:41.037Z,18.65
2022-11-24T22:51:10.644Z,17.67
2022-11-24T22:53:37.771Z,17.85
2022-11-24T22:58:39.517Z,17.52
2022-11-24T23:01:19.104Z,16.75
2022-11-24T23:03:46.834Z,17.35
2022-11-24T23:06:15.892Z,18.02
2022-11-24T23:08:42.938Z,17.52
2022-11-24T23:13:37.771Z,16.95
2022-11-24T23:18:39.866Z,16.92
2022-11-24T23:21:16.907Z,18.17
2022-11-24T23:23:44.329Z,17.05
2022-11-24T23:26:20.767Z,17.25
2022-11-24T23:28:47.842Z,16.92
2022-11-24T23:33:43.722Z,16.55
2022-11-24T23:36:13.373Z,17.52
2022-11-24T23:38:41.123Z,17.50
2022-11-24T23:41:20.429Z,18.55
2022-11-24T23:43:47.615Z,18.23
2022-11-24T23:46:22.986Z,19.00
2022-11-24T23:48:51.284Z,18.83
2022-11-24T23:51:22.156Z,18.27
2022-11-24T23:53:49.697Z,18.40
2022-11-24T23:56:21.918Z,19.55
2022-11-24T23:58:48.987Z,18.02
